createdAt,value
2018-08-28T00:00:16.401Z,7.87
2018-08-28T00:02:46.175Z,10.13
2018-08-28T00:05:15.506Z,10.50
2018-08-28T00:07:45.136Z,9.90
2018-08-28T00:10:14.793Z,10.33
2018-08-28T00:12:43.701Z,7.27
2018-08-28T00:15:12.867Z,9.83
2018-08-28T00:17:41.841Z,7.70
2018-08-28T00:20:10.835Z,11.03
2018-08-28T00:22:39.789Z,8.53
2018-08-28T00:25:08.820Z,8.97
2018-08-28T00:27:38.133Z,9.13
2018-08-28T00:30:07.153Z,7.80
2018-08-28T00:32:36.212Z,8.27
2018-08-28T00:35:05.175Z,7.67
2018-08-28T00:37:34.633Z,10.87
2018-08-28T00:40:03.569Z,8.47
2018-08-28T00:42:32.431Z,7.67
2018-08-28T00:45:01.929Z,9.50
2018-08-28T00:47:30.840Z,8.40
2018-08-28T00:50:00.073Z,8.37
2018-08-28T00:52:29.155Z,7.80
2018-08-28T00:54:58.365Z,7.87
2018-08-28T00:57:27.325Z,8.70
2018-08-28T00:59:56.197Z,8.37
2018-08-28T01:02:25.133Z,9.17
2018-08-28T01:04:54.067Z,10.07
2018-08-28T01:07:23.455Z,9.37
2018-08-28T01:09:52.340Z,10.90
2018-08-28T01:12:21.266Z,8.77
2018-08-28T01:14:50.459Z,9.33
2018-08-28T01:17:21.081Z,10.30
2018-08-28T01:19:50.075Z,8.53
2018-08-28T01:22:19.027Z,10.17
2018-08-28T01:24:47.935Z,11.20
2018-08-28T01:27:16.947Z,10.20
2018-08-28T01:29:46.361Z,12.03
2018-08-28T01:32:15.831Z,8.80
2018-08-28T01:34:44.687Z,9.30
2018-08-28T01:37:13.630Z,10.73
2018-08-28T01:39:43.829Z,9.63
2018-08-28T01:42:12.847Z,11.17
2018-08-28T01:44:41.729Z,11.20
2018-08-28T01:47:10.645Z,9.43
2018-08-28T01:49:40.383Z,12.47
2018-08-28T01:52:09.345Z,10.67
2018-08-28T01:54:38.487Z,10.90
2018-08-28T01:57:08.603Z,10.20
2018-08-28T01:59:37.557Z,10.17
2018-08-28T02:02:06.982Z,9.90
2018-08-28T02:04:35.911Z,12.43
2018-08-28T02:07:04.854Z,10.90
2018-08-28T02:09:33.739Z,13.67
2018-08-28T02:12:02.655Z,11.00
2018-08-28T02:14:32.523Z,9.80
2018-08-28T02:17:01.513Z,9.30
2018-08-28T02:19:30.515Z,9.40
2018-08-28T02:21:59.442Z,11.90
2018-08-28T02:24:28.723Z,9.03
2018-08-28T02:26:57.679Z,10.20
2018-08-28T02:29:26.572Z,13.47
2018-08-28T02:31:55.503Z,11.87
2018-08-28T02:34:24.676Z,13.37
2018-08-28T02:36:53.649Z,12.90
2018-08-28T02:39:22.520Z,12.97
2018-08-28T02:41:51.426Z,9.60
2018-08-28T02:44:20.633Z,11.90
2018-08-28T02:46:49.613Z,8.30
2018-08-28T02:49:18.505Z,8.97
2018-08-28T02:51:47.503Z,11.80
2018-08-28T02:54:16.783Z,10.00
2018-08-28T02:56:45.726Z,10.43
2018-08-28T02:59:14.968Z,11.57
2018-08-28T03:01:43.971Z,12.53
2018-08-28T03:04:12.946Z,8.80
2018-08-28T03:06:41.872Z,11.87
2018-08-28T03:09:10.769Z,10.23
2018-08-28T03:11:39.781Z,11.33
2018-08-28T03:14:09.940Z,10.87
2018-08-28T03:16:38.852Z,9.90
2018-08-28T03:19:08.137Z,11.77
2018-08-28T03:21:37.116Z,10.17
2018-08-28T03:24:06.566Z,12.00
2018-08-28T03:26:35.486Z,11.23
2018-08-28T03:29:05.407Z,11.63
2018-08-28T03:31:34.642Z,16.60
2018-08-28T03:34:03.616Z,12.40
2018-08-28T03:36:32.554Z,11.87
2018-08-28T03:39:02.672Z,10.00
2018-08-28T03:41:32.230Z,9.83
2018-08-28T03:44:01.154Z,11.93
2018-08-28T03:46:30.184Z,13.27
2018-08-28T03:48:59.089Z,12.57
2018-08-28T03:51:28.012Z,12.47
2018-08-28T03:53:56.962Z,9.50
2018-08-28T03:56:26.072Z,12.13
2018-08-28T03:58:54.982Z,10.03
2018-08-28T04:01:24.044Z,13.17
2018-08-28T04:03:53.533Z,9.93
2018-08-28T04:06:22.540Z,9.53
2018-08-28T04:08:51.839Z,12.13
2018-08-28T04:11:20.784Z,10.83
2018-08-28T04:13:50.480Z,12.57
2018-08-28T04:16:20.138Z,9.07
2018-08-28T04:18:49.054Z,11.47
2018-08-28T04:21:17.984Z,11.43
2018-08-28T04:23:47.793Z,10.40
2018-08-28T04:26:16.723Z,12.27
2018-08-28T04:28:45.668Z,12.07
2018-08-28T04:31:15.087Z,10.30
2018-08-28T04:33:44.005Z,11.17
2018-08-28T04:36:13.872Z,11.57
2018-08-28T04:38:43.246Z,11.67
2018-08-28T04:41:12.276Z,10.77
2018-08-28T04:43:41.466Z,11.20
2018-08-28T04:46:10.981Z,10.83
2018-08-28T04:48:39.931Z,9.93
2018-08-28T04:51:08.863Z,13.07
2018-08-28T04:53:37.747Z,9.20
2018-08-28T04:56:06.711Z,9.37
2018-08-28T04:58:35.619Z,9.93
2018-08-28T05:01:05.673Z,10.37
2018-08-28T05:03:34.623Z,10.00
2018-08-28T05:06:04.827Z,11.67
2018-08-28T05:08:33.719Z,10.30
2018-08-28T05:11:02.663Z,8.37
2018-08-28T05:13:31.531Z,11.30
2018-08-28T05:16:00.622Z,10.60
2018-08-28T05:18:29.483Z,9.23
2018-08-28T05:20:58.454Z,11.20
2018-08-28T05:23:29.216Z,12.53
2018-08-28T05:25:58.238Z,9.20
2018-08-28T05:28:29.619Z,10.57
2018-08-28T05:30:58.569Z,9.77
2018-08-28T05:33:27.494Z,13.57
2018-08-28T05:35:56.808Z,12.20
2018-08-28T05:38:25.681Z,9.50
2018-08-28T05:40:55.965Z,12.73
2018-08-28T05:43:25.533Z,9.97
2018-08-28T05:45:57.188Z,12.70
2018-08-28T05:48:26.159Z,10.10
2018-08-28T05:50:55.211Z,11.30
2018-08-28T05:53:24.700Z,11.97
2018-08-28T05:55:54.437Z,12.07
2018-08-28T05:58:23.457Z,10.50
2018-08-28T06:00:53.044Z,10.00
2018-08-28T06:03:22.268Z,10.23
2018-08-28T06:05:51.413Z,10.50
2018-08-28T06:08:20.360Z,9.40
2018-08-28T06:10:50.327Z,10.30
2018-08-28T06:13:21.301Z,10.90
2018-08-28T06:15:50.343Z,11.73
2018-08-28T06:18:19.381Z,10.10
2018-08-28T06:20:48.490Z,10.40
2018-08-28T06:23:17.927Z,9.67
2018-08-28T06:25:47.759Z,10.45
2018-08-28T06:31:17.943Z,8.97
2018-08-28T06:33:47.736Z,8.33
2018-08-28T06:36:16.994Z,12.90
2018-08-28T06:38:46.613Z,10.73
2018-08-28T06:41:15.833Z,8.80
2018-08-28T06:43:45.423Z,8.83
2018-08-28T06:46:14.833Z,7.65
2018-08-28T06:48:44.539Z,9.25
2018-08-28T06:51:13.765Z,9.63
2018-08-28T06:53:42.911Z,8.23
2018-08-28T06:56:12.099Z,8.90
2018-08-28T06:58:41.391Z,7.30
2018-08-28T07:01:10.739Z,7.55
2018-08-28T07:03:40.651Z,10.03
2018-08-28T07:06:10.176Z,10.35
2018-08-28T07:08:39.788Z,11.22
2018-08-28T07:11:08.799Z,7.37
2018-08-28T07:13:38.095Z,10.82
2018-08-28T07:16:07.099Z,8.98
2018-08-28T07:18:36.274Z,8.50
2018-08-28T07:21:05.872Z,8.25
2018-08-28T07:23:34.819Z,8.90
2018-08-28T07:26:04.026Z,9.63
2018-08-28T07:28:33.017Z,7.55
2018-08-28T07:31:02.804Z,7.03
2018-08-28T07:33:32.106Z,8.10
2018-08-28T07:36:01.575Z,8.05
2018-08-28T07:38:31.718Z,8.20
2018-08-28T07:41:01.706Z,6.85
2018-08-28T07:43:30.757Z,8.60
2018-08-28T07:45:59.700Z,9.40
2018-08-28T07:48:29.117Z,8.83
2018-08-28T07:50:59.211Z,8.18
2018-08-28T07:53:28.247Z,11.08
2018-08-28T07:55:58.051Z,6.33
2018-08-28T07:58:26.993Z,10.20
2018-08-28T08:00:56.012Z,7.25
2018-08-28T08:03:25.468Z,10.93
2018-08-28T08:05:55.792Z,8.20
2018-08-28T08:08:24.847Z,6.47
2018-08-28T08:10:54.518Z,8.63
2018-08-28T08:13:25.215Z,7.17
2018-08-28T08:15:55.069Z,7.40
2018-08-28T08:18:24.927Z,8.98
2018-08-28T08:20:55.487Z,6.58
2018-08-28T08:23:26.273Z,9.13
2018-08-28T08:25:55.226Z,8.00
2018-08-28T08:28:24.273Z,7.83
2018-08-28T08:30:53.164Z,7.83
2018-08-28T08:33:22.393Z,7.00
2018-08-28T08:35:51.527Z,7.80
2018-08-28T08:38:20.555Z,6.50
2018-08-28T08:40:49.692Z,7.12
2018-08-28T08:43:18.684Z,7.00
2018-08-28T08:45:48.840Z,5.20
2018-08-28T08:48:18.167Z,8.38
2018-08-28T08:50:47.175Z,5.78
2018-08-28T08:53:16.980Z,8.03
2018-08-28T08:55:47.219Z,6.90
2018-08-28T08:58:16.708Z,8.28
2018-08-28T09:00:48.420Z,5.85
2018-08-28T09:03:18.007Z,7.25
2018-08-28T09:05:47.913Z,7.95
2018-08-28T09:08:19.699Z,9.95
2018-08-28T09:10:48.653Z,5.03
2018-08-28T09:13:18.425Z,7.42
2018-08-28T09:15:49.864Z,6.20
2018-08-28T09:18:18.729Z,5.50
2018-08-28T09:20:47.738Z,9.83
2018-08-28T09:26:23.229Z,7.58
2018-08-28T09:28:52.177Z,9.18
2018-08-28T09:46:06.021Z,4.97
2018-08-28T09:48:35.140Z,5.42
2018-08-28T09:51:04.701Z,6.80
2018-08-28T09:53:33.839Z,5.62
2018-08-28T09:56:02.863Z,5.28
2018-08-28T09:58:32.196Z,9.30
2018-08-28T10:01:06.765Z,5.15
2018-08-28T10:03:36.768Z,8.05
2018-08-28T10:06:06.413Z,5.78
2018-08-28T10:08:35.639Z,7.00
2018-08-28T10:11:04.669Z,5.08
2018-08-28T10:13:33.569Z,7.92
2018-08-28T10:16:04.187Z,6.40
2018-08-28T10:18:33.793Z,8.25
2018-08-28T10:21:02.765Z,7.10
2018-08-28T10:23:32.537Z,6.67
2018-08-28T10:26:01.997Z,6.67
2018-08-28T10:28:31.283Z,5.83
2018-08-28T10:33:41.811Z,8.70
2018-08-28T10:36:10.811Z,6.45
2018-08-28T10:38:39.754Z,7.55
2018-08-28T10:41:08.676Z,5.67
2018-08-28T10:43:38.304Z,7.33
2018-08-28T10:46:07.521Z,7.60
2018-08-28T10:48:36.746Z,5.97
2018-08-28T10:51:05.661Z,9.43
2018-08-28T10:53:35.868Z,7.78
2018-08-28T10:56:04.910Z,10.60
2018-08-28T10:58:39.808Z,7.00
2018-08-28T11:01:09.281Z,6.97
2018-08-28T11:03:38.200Z,9.10
2018-08-28T11:06:07.269Z,7.30
2018-08-28T11:08:36.299Z,6.00
2018-08-28T11:11:06.520Z,8.10
2018-08-28T11:13:35.470Z,6.03
2018-08-28T11:16:04.591Z,8.33
2018-08-28T11:18:33.766Z,7.58
2018-08-28T11:21:02.716Z,10.50
2018-08-28T11:23:31.640Z,6.12
2018-08-28T11:26:01.108Z,6.58
2018-08-28T11:28:30.202Z,7.25
2018-08-28T11:30:59.594Z,10.35
2018-08-28T11:33:28.668Z,10.28
2018-08-28T11:35:57.658Z,8.35
2018-08-28T11:38:26.572Z,9.05
2018-08-28T11:40:55.629Z,5.50
2018-08-28T11:43:24.633Z,8.78
2018-08-28T11:45:54.428Z,9.35
2018-08-28T11:48:23.454Z,7.45
2018-08-28T11:50:52.744Z,6.67
2018-08-28T11:53:21.814Z,6.97
2018-08-28T11:55:51.080Z,7.90
2018-08-28T11:58:20.428Z,7.03
2018-08-28T12:04:12.840Z,12.90
2018-08-28T12:06:41.873Z,7.28
2018-08-28T12:09:12.500Z,9.88
2018-08-28T12:11:42.518Z,7.17
2018-08-28T12:14:12.786Z,8.08
2018-08-28T12:16:41.830Z,6.17
2018-08-28T12:19:10.828Z,8.55
2018-08-28T12:21:40.717Z,5.70
2018-08-28T12:24:10.933Z,8.00
2018-08-28T12:26:39.919Z,7.47
2018-08-28T12:29:09.544Z,9.65
2018-08-28T12:31:41.777Z,7.08
2018-08-28T12:34:11.053Z,8.68
2018-08-28T12:36:40.116Z,6.95
2018-08-28T12:39:09.837Z,7.87
2018-08-28T12:41:38.928Z,6.72
2018-08-28T12:44:08.091Z,8.28
2018-08-28T12:46:37.776Z,10.03
2018-08-28T12:49:06.877Z,7.78
2018-08-28T12:51:35.874Z,7.00
2018-08-28T12:54:05.976Z,8.83
2018-08-28T12:56:35.552Z,6.37
2018-08-28T12:59:04.988Z,6.55
2018-08-28T13:01:34.495Z,10.18
2018-08-28T13:04:04.877Z,7.15
2018-08-28T13:06:34.584Z,10.25
2018-08-28T13:09:07.429Z,8.55
2018-08-28T13:11:36.514Z,8.95
2018-08-28T13:14:05.490Z,8.23
2018-08-28T13:16:34.862Z,6.03
2018-08-28T13:19:05.208Z,6.47
2018-08-28T13:21:34.901Z,6.78
2018-08-28T13:24:05.717Z,6.50
2018-08-28T13:26:36.344Z,7.58
2018-08-28T13:29:05.924Z,7.85
2018-08-28T13:31:35.950Z,6.50
2018-08-28T13:34:04.988Z,6.40
2018-08-28T13:36:34.108Z,7.20
2018-08-28T13:39:04.297Z,7.80
2018-08-28T13:41:35.394Z,9.15
2018-08-28T13:44:06.256Z,8.75
2018-08-28T13:46:35.218Z,7.47
2018-08-28T13:49:04.826Z,8.03
2018-08-28T13:51:33.913Z,5.97
2018-08-28T13:54:03.559Z,6.60
2018-08-28T13:56:32.608Z,6.25
2018-08-28T13:59:06.980Z,8.05
2018-08-28T14:01:35.938Z,7.22
2018-08-28T14:04:05.548Z,8.18
2018-08-28T14:06:35.162Z,8.40
2018-08-28T14:09:05.027Z,7.67
2018-08-28T14:11:37.627Z,8.90
2018-08-28T14:14:06.666Z,7.85
2018-08-28T14:16:35.919Z,7.00
2018-08-28T14:19:05.416Z,5.92
2018-08-28T14:21:34.351Z,6.92
2018-08-28T14:24:04.783Z,9.33
2018-08-28T14:26:33.829Z,8.63
2018-08-28T14:29:03.529Z,8.00
2018-08-28T14:31:40.629Z,5.90
2018-08-28T14:34:10.622Z,7.60
2018-08-28T14:36:40.708Z,9.75
2018-08-28T14:39:10.033Z,8.48
2018-08-28T14:41:39.020Z,7.58
2018-08-28T14:44:08.448Z,7.95
2018-08-28T14:46:38.686Z,9.15
2018-08-28T14:49:09.304Z,7.08
2018-08-28T14:51:38.432Z,7.70
2018-08-28T14:54:07.422Z,9.78
2018-08-28T14:56:36.647Z,7.60
2018-08-28T14:59:05.490Z,8.63
2018-08-28T15:01:34.984Z,9.00
2018-08-28T15:04:05.058Z,7.75
2018-08-28T15:06:34.039Z,9.33
2018-08-28T15:09:02.958Z,7.95
2018-08-28T15:11:31.937Z,6.75
2018-08-28T15:14:00.955Z,9.25
2018-08-28T15:16:30.511Z,7.62
2018-08-28T15:18:59.800Z,6.67
2018-08-28T15:21:30.079Z,6.35
2018-08-28T15:23:59.317Z,8.85
2018-08-28T15:26:28.273Z,8.10
2018-08-28T15:28:58.289Z,7.72
2018-08-28T15:31:27.323Z,8.15
2018-08-28T15:33:56.365Z,7.53
2018-08-28T15:36:25.599Z,6.45
2018-08-28T15:41:34.073Z,7.33
2018-08-28T15:44:03.321Z,6.50
2018-08-28T15:46:34.321Z,8.08
2018-08-28T15:49:04.307Z,8.70
2018-08-28T15:51:33.967Z,6.85
2018-08-28T15:54:03.479Z,8.75
2018-08-28T15:56:32.583Z,10.43
2018-08-28T15:59:02.285Z,11.08
2018-08-28T16:01:31.669Z,9.83
2018-08-28T16:04:00.631Z,9.78
2018-08-28T16:06:29.805Z,8.03
2018-08-28T16:08:58.923Z,8.90
2018-08-28T16:11:29.054Z,6.70
2018-08-28T16:13:58.193Z,9.23
2018-08-28T16:16:34.618Z,8.48
2018-08-28T16:19:03.691Z,10.70
2018-08-28T16:21:38.385Z,10.70
2018-08-28T16:24:13.195Z,10.40
2018-08-28T16:43:45.700Z,8.58
2018-08-28T16:46:14.855Z,9.60
2018-08-28T16:52:46.977Z,10.15
2018-08-28T16:55:16.207Z,8.43
2018-08-28T16:57:45.912Z,8.20
2018-08-28T17:00:15.164Z,8.48
2018-08-28T17:02:44.642Z,7.42
2018-08-28T17:05:13.659Z,7.65
2018-08-28T17:07:43.762Z,7.20
2018-08-28T17:10:13.418Z,9.88
2018-08-28T17:12:42.853Z,19.25
2018-08-28T17:15:12.742Z,10.82
2018-08-28T17:17:41.960Z,8.30
2018-08-28T17:20:11.484Z,8.43
2018-08-28T17:22:40.915Z,7.22
2018-08-28T17:25:10.031Z,10.20
2018-08-28T17:27:40.743Z,9.33
2018-08-28T17:30:09.977Z,7.65
2018-08-28T17:32:40.187Z,7.08
2018-08-28T17:35:10.120Z,10.75
2018-08-28T17:37:39.228Z,8.15
2018-08-28T17:40:09.037Z,8.70
2018-08-28T17:42:38.412Z,8.10
2018-08-28T17:45:08.139Z,7.40
2018-08-28T17:47:38.637Z,7.72
2018-08-28T17:50:10.139Z,9.60
2018-08-28T17:52:39.952Z,8.98
2018-08-28T17:55:09.956Z,10.28
2018-08-28T17:57:42.345Z,9.15
2018-08-28T18:00:11.506Z,14.10
2018-08-28T18:02:42.036Z,11.40
2018-08-28T18:05:12.042Z,10.05
2018-08-28T18:07:41.319Z,9.15
2018-08-28T18:10:16.718Z,9.73
2018-08-28T18:12:46.653Z,12.10
2018-08-28T18:15:16.848Z,10.50
2018-08-28T18:17:46.031Z,11.12
2018-08-28T18:20:15.360Z,10.60
2018-08-28T18:22:46.493Z,15.30
2018-08-28T18:25:15.733Z,8.60
2018-08-28T18:27:45.197Z,10.18
2018-08-28T18:30:14.240Z,10.72
2018-08-28T18:35:15.057Z,13.83
2018-08-28T18:37:47.570Z,10.78
2018-08-28T18:40:17.132Z,10.08
2018-08-28T18:42:46.203Z,11.27
2018-08-28T18:45:15.409Z,10.30
2018-08-28T18:47:46.778Z,11.27
2018-08-28T18:50:17.958Z,11.87
2018-08-28T18:52:49.269Z,11.08
2018-08-28T18:55:18.588Z,11.87
2018-08-28T18:57:48.048Z,11.93
2018-08-28T19:00:17.251Z,11.33
2018-08-28T19:02:48.399Z,28.73
2018-08-28T19:05:17.694Z,19.75
2018-08-28T19:07:48.282Z,15.83
2018-08-28T19:10:17.511Z,15.25
2018-08-28T19:12:47.133Z,17.97
2018-08-28T19:15:16.506Z,15.43
2018-08-28T19:17:45.969Z,16.73
2018-08-28T19:20:16.301Z,12.83
2018-08-28T19:22:46.967Z,14.73
2018-08-28T19:25:18.233Z,13.62
2018-08-28T19:27:47.462Z,18.25
2018-08-28T19:30:17.675Z,30.83
2018-08-28T19:32:46.919Z,17.57
2018-08-28T19:35:16.163Z,12.93
2018-08-28T19:44:45.539Z,15.75
2018-08-28T19:47:15.990Z,16.00
2018-08-28T19:49:45.321Z,12.63
2018-08-28T19:52:15.370Z,13.53
2018-08-28T19:54:49.170Z,17.63
2018-08-28T19:57:19.012Z,13.35
2018-08-28T19:59:48.296Z,13.23
2018-08-28T20:02:17.363Z,13.45
2018-08-28T20:04:47.391Z,15.08
2018-08-28T20:07:16.944Z,14.78
2018-08-28T20:09:46.817Z,12.70
2018-08-28T20:12:15.903Z,14.37
2018-08-28T20:14:44.856Z,12.10
2018-08-28T20:17:13.937Z,14.10
2018-08-28T20:19:53.905Z,11.80
2018-08-28T20:22:23.524Z,14.27
2018-08-28T20:24:52.560Z,12.87
2018-08-28T20:27:23.095Z,12.23
2018-08-28T20:29:52.547Z,12.63
2018-08-28T20:32:21.836Z,11.15
2018-08-28T20:34:50.962Z,15.57
2018-08-28T20:37:21.369Z,12.80
2018-08-28T20:39:51.053Z,11.47
2018-08-28T20:42:20.813Z,13.20
2018-08-28T20:44:49.983Z,15.53
2018-08-28T20:47:20.414Z,15.57
2018-08-28T20:49:50.474Z,12.20
2018-08-28T20:52:19.843Z,12.03
2018-08-28T20:54:49.129Z,12.73
2018-08-28T20:57:18.188Z,13.80
2018-08-28T20:59:47.211Z,14.43
2018-08-28T21:02:17.741Z,12.40
2018-08-28T21:04:47.367Z,11.00
2018-08-28T21:07:16.549Z,11.73
2018-08-28T21:09:48.741Z,13.63
2018-08-28T21:12:20.735Z,12.93
2018-08-28T21:14:49.960Z,12.63
2018-08-28T21:17:19.020Z,12.30
2018-08-28T21:19:48.994Z,13.17
2018-08-28T21:22:18.150Z,11.70
2018-08-28T21:24:48.274Z,11.47
2018-08-28T21:27:18.044Z,10.67
2018-08-28T21:29:49.877Z,13.23
2018-08-28T21:32:21.839Z,16.90
2018-08-28T21:34:52.411Z,10.40
2018-08-28T21:37:26.395Z,11.07
2018-08-28T21:39:56.598Z,11.30
2018-08-28T21:42:26.556Z,12.27
2018-08-28T21:44:55.515Z,10.83
2018-08-28T21:47:26.246Z,12.33
2018-08-28T21:49:55.872Z,10.50
2018-08-28T21:52:26.124Z,14.63
2018-08-28T21:54:56.028Z,11.83
2018-08-28T22:11:15.962Z,9.60
2018-08-28T22:13:45.004Z,12.37
2018-08-28T22:16:14.272Z,13.33
2018-08-28T22:18:44.364Z,10.67
2018-08-28T22:21:14.287Z,10.43
2018-08-28T22:26:27.922Z,11.90
2018-08-28T22:28:58.938Z,9.33
2018-08-28T22:31:29.662Z,10.87
2018-08-28T22:33:59.616Z,8.47
2018-08-28T22:36:28.681Z,12.10
2018-08-28T22:38:57.990Z,10.30
2018-08-28T22:41:27.670Z,12.17
2018-08-28T22:43:57.359Z,11.30
2018-08-28T22:46:26.378Z,11.87
2018-08-28T22:48:55.390Z,9.07
2018-08-28T22:51:24.684Z,11.97
2018-08-28T22:53:53.776Z,12.17
2018-08-28T22:56:23.836Z,11.43
2018-08-28T22:58:52.898Z,15.87
2018-08-28T23:01:22.579Z,12.50
2018-08-28T23:03:51.606Z,11.23
2018-08-28T23:06:21.910Z,13.03
2018-08-28T23:08:50.796Z,12.03
2018-08-28T23:17:40.751Z,9.63
2018-08-28T23:20:09.853Z,15.00
2018-08-28T23:22:42.780Z,12.50
2018-08-28T23:25:11.967Z,11.23
2018-08-28T23:27:41.955Z,11.83
2018-08-28T23:30:11.533Z,11.73
2018-08-28T23:32:41.781Z,10.63
2018-08-28T23:35:17.491Z,10.90
2018-08-28T23:37:46.525Z,13.00
2018-08-28T23:40:15.971Z,11.60
2018-08-28T23:42:44.951Z,11.27
2018-08-28T23:45:14.425Z,8.87
2018-08-28T23:47:43.753Z,11.63
2018-08-28T23:50:13.222Z,10.47
2018-08-28T23:52:43.454Z,12.90
2018-08-28T23:55:12.673Z,9.97
2018-08-28T23:57:41.793Z,11.90
